Time;durP1;ratioP1;P1;durP2;ratioP2;P2;SDS_P1;SDS_P2;PMS_P1;PMS_P2;Temp;Humidity;BMP_temperature;BMP_pressure;BME280_temperature;BME280_humidity;BME280_pressure;Samples;Min_cycle;Max_cycle;Signal;HPM_P1;HPM_P2
2022/02/12 00:00:40;;;;;;;0.90;0.90;;;-0.10;99.90;;;;;;5034697;28;20382;-65
2022/02/12 00:03:05;;;;;;;0.85;0.85;;;-0.10;99.90;;;;;;5034438;28;20495;-65
2022/02/12 00:05:32;;;;;;;0.20;0.20;;;-0.10;99.90;;;;;;5034351;28;20030;-65
2022/02/12 00:07:59;;;;;;;0.05;0.05;;;-0.20;99.90;;;;;;5034525;28;20040;-65
2022/02/12 00:10:28;;;;;;;6.85;1.20;;;-0.10;99.90;;;;;;5034525;28;20033;-65
2022/02/12 00:12:54;;;;;;;0.10;0.10;;;-0.10;99.90;;;;;;5049363;28;20041;-65
2022/02/12 00:15:21;;;;;;;0.55;0.55;;;-0.10;99.90;;;;;;5049469;28;20041;-63
2022/02/12 00:17:47;;;;;;;0.77;0.77;;;-0.30;99.90;;;;;;5034335;28;20489;-64
2022/02/12 00:20:15;;;;;;;0.60;0.60;;;-0.50;99.90;;;;;;5033820;28;20041;-64
2022/02/12 00:22:42;;;;;;;0.30;0.30;;;-0.70;99.90;;;;;;5034267;28;20056;-64
2022/02/12 00:25:09;;;;;;;0.10;0.10;;;-0.70;99.90;;;;;;5049404;28;20048;-64
2022/02/12 00:27:35;;;;;;;0.60;0.60;;;-0.60;99.90;;;;;;5049636;28;20083;-64
2022/02/12 00:30:01;;;;;;;0.22;0.22;;;-0.70;99.90;;;;;;5033954;28;20029;-64
2022/02/12 00:32:26;;;;;;;1.58;1.48;;;-0.60;99.90;;;;;;5049033;28;20092;-65
2022/02/12 00:34:52;;;;;;;0.30;0.30;;;-0.70;99.90;;;;;;5032757;28;20041;-64
2022/02/12 00:37:18;;;;;;;2.00;1.15;;;-0.70;99.90;;;;;;5048836;28;20084;-64
2022/02/12 00:39:44;;;;;;;0.90;0.90;;;-0.80;99.90;;;;;;5033992;28;20116;-64
2022/02/12 00:42:11;;;;;;;0.52;0.52;;;-0.90;99.90;;;;;;5033583;28;20057;-64
2022/02/12 00:44:37;;;;;;;1.45;1.05;;;-1.00;99.90;;;;;;5048728;28;20037;-64
2022/02/12 00:47:03;;;;;;;3.10;2.67;;;-0.90;99.90;;;;;;5033643;28;20103;-64
2022/02/12 00:49:29;;;;;;;0.95;0.95;;;-0.90;99.90;;;;;;5032111;28;20026;-64
2022/02/12 00:51:55;;;;;;;1.65;1.55;;;-0.90;99.90;;;;;;5033315;28;20550;-64
2022/02/12 00:54:22;;;;;;;0.10;0.10;;;-0.90;99.90;;;;;;5033566;28;20087;-64
2022/02/12 00:56:48;;;;;;;1.45;0.40;;;-0.90;99.90;;;;;;5033420;28;20033;-63
2022/02/12 00:59:14;;;;;;;2.45;1.17;;;-0.80;99.90;;;;;;5048724;28;20033;-63
2022/02/12 01:01:45;;;;;;;0.20;0.20;;;-0.90;99.90;;;;;;5033437;28;20113;-63
2022/02/12 01:04:10;;;;;;;0.10;0.10;;;-0.90;99.90;;;;;;5048493;28;20033;-63
2022/02/12 01:06:37;;;;;;;0.57;0.57;;;-0.90;99.90;;;;;;5047613;28;20056;-63
2022/02/12 01:09:03;;;;;;;0.65;0.65;;;-0.90;99.90;;;;;;5032826;28;20678;-63
2022/02/12 01:11:28;;;;;;;0.52;0.52;;;-1.00;99.90;;;;;;5033375;28;20487;-64
2022/02/12 01:21:16;;;;;;;0.52;0.52;;;-1.10;99.90;;;;;;5032647;28;20084;-63
2022/02/12 01:23:42;;;;;;;0.10;0.10;;;-1.10;99.90;;;;;;5032867;28;20025;-64
2022/02/12 01:26:07;;;;;;;0.10;0.10;;;-1.10;99.90;;;;;;5032605;28;20049;-63
2022/02/12 01:28:33;;;;;;;0.20;0.20;;;-1.20;99.90;;;;;;5032761;28;20060;-64
2022/02/12 01:30:59;;;;;;;0.10;0.10;;;-1.10;99.90;;;;;;5032798;28;20032;-63
2022/02/12 01:33:25;;;;;;;0.10;0.10;;;-1.10;99.90;;;;;;5032416;28;20079;-64
2022/02/12 01:35:50;;;;;;;0.17;0.17;;;-1.00;99.90;;;;;;5032996;28;20072;-64
2022/02/12 01:38:17;;;;;;;0.10;0.10;;;-1.00;99.90;;;;;;5032748;28;20037;-64
2022/02/12 01:40:44;;;;;;;0.20;0.20;;;-1.00;99.90;;;;;;5032496;28;20108;-64
2022/02/12 01:50:32;;;;;;;0.17;0.17;;;-1.00;99.90;;;;;;5032515;28;20080;-64
2022/02/12 01:52:57;;;;;;;0.10;0.10;;;-1.00;99.90;;;;;;5047822;28;20041;-64
2022/02/12 01:55:23;;;;;;;0.40;0.40;;;-1.20;99.90;;;;;;5032016;28;20041;-65
2022/02/12 01:57:49;;;;;;;0.90;0.77;;;-1.20;99.90;;;;;;5032540;28;20782;-64
2022/02/12 02:00:18;;;;;;;0.13;0.13;;;-1.40;99.90;;;;;;5032341;28;20044;-64
2022/02/12 02:02:44;;;;;;;2.10;1.90;;;-1.50;99.90;;;;;;5032339;28;20532;-65
2022/02/12 02:05:11;;;;;;;0.80;0.80;;;-1.50;99.90;;;;;;5047349;28;20033;-65
2022/02/12 02:07:42;;;;;;;0.10;0.10;;;-1.60;99.90;;;;;;5030581;28;20056;-65
2022/02/12 02:10:13;;;;;;;0.17;0.17;;;-1.60;99.90;;;;;;5047206;28;20037;-65
2022/02/12 02:12:39;;;;;;;;;;;-1.50;99.90;;;;;;5047484;28;20040;-65
2022/02/12 02:15:06;;;;;;;0.10;0.10;;;-1.50;99.90;;;;;;5032112;28;20008;-65
2022/02/12 02:17:32;;;;;;;0.45;0.45;;;-1.50;99.90;;;;;;5032079;28;20026;-65
2022/02/12 02:19:57;;;;;;;0.40;0.40;;;-1.40;99.90;;;;;;5031347;28;20083;-65
2022/02/12 02:22:41;;;;;;;0.20;0.20;;;-1.40;99.90;;;;;;5031797;28;20040;-65
2022/02/12 02:25:07;;;;;;;0.63;0.63;;;-1.40;99.90;;;;;;5046387;28;20632;-64
2022/02/12 02:27:32;;;;;;;0.65;0.65;;;-1.40;99.90;;;;;;5031957;28;20063;-65
2022/02/12 02:29:58;;;;;;;0.60;0.60;;;-1.40;99.90;;;;;;5031603;28;20025;-65
2022/02/12 02:32:24;;;;;;;0.10;0.10;;;-1.50;99.90;;;;;;5031673;28;20068;-65
2022/02/12 02:34:54;;;;;;;0.55;0.50;;;-1.50;99.90;;;;;;5030369;28;20136;-65
2022/02/12 02:37:22;;;;;;;0.40;0.40;;;-1.50;99.90;;;;;;5031817;28;20033;-65
2022/02/12 02:39:49;;;;;;;0.10;0.10;;;-1.50;99.90;;;;;;5031591;28;20129;-65
2022/02/12 02:42:16;;;;;;;0.20;0.20;;;-1.40;99.90;;;;;;5046673;28;20025;-65
2022/02/12 02:44:42;;;;;;;0.13;0.13;;;-1.40;99.90;;;;;;5047028;28;20522;-65
2022/02/12 02:49:52;;;;;;;0.10;0.10;;;-1.60;99.90;;;;;;5031495;28;20536;-65
2022/02/12 02:57:51;;;;;;;0.40;0.40;;;-1.60;99.90;;;;;;5031418;28;20030;-63
2022/02/12 03:00:17;;;;;;;0.15;0.15;;;-1.60;99.90;;;;;;5031333;28;20116;-64
2022/02/12 03:02:43;;;;;;;0.20;0.20;;;-1.50;99.90;;;;;;5046413;28;20040;-64
2022/02/12 03:05:09;;;;;;;0.40;0.40;;;-1.50;99.90;;;;;;5046830;28;20034;-64
2022/02/12 03:07:35;;;;;;;1.48;1.38;;;-1.50;99.90;;;;;;5047007;28;20080;-65
2022/02/12 03:10:02;;;;;;;0.10;0.10;;;-1.50;99.90;;;;;;5031720;28;20033;-64
2022/02/12 03:12:28;;;;;;;0.20;0.20;;;-1.60;99.90;;;;;;5031556;28;20060;-65
2022/02/12 03:14:54;;;;;;;3.72;3.42;;;-1.70;99.90;;;;;;5046558;28;20376;-64
2022/02/12 03:17:20;;;;;;;0.17;0.17;;;-1.70;99.90;;;;;;5046426;28;20032;-64
2022/02/12 03:19:46;;;;;;;0.30;0.30;;;-1.70;99.90;;;;;;5046677;28;20029;-64
2022/02/12 03:22:11;;;;;;;0.10;0.10;;;-1.60;99.90;;;;;;5031525;28;20037;-64
2022/02/12 03:24:37;;;;;;;0.10;0.10;;;-1.60;99.90;;;;;;5031610;28;20033;-64
2022/02/12 03:27:03;;;;;;;0.40;0.40;;;-1.70;99.90;;;;;;5031443;28;20042;-64
2022/02/12 03:29:29;;;;;;;0.17;0.17;;;-1.70;99.90;;;;;;5031459;28;20095;-64
2022/02/12 03:31:54;;;;;;;0.10;0.10;;;-1.80;99.90;;;;;;5034711;28;20037;-64
2022/02/12 03:34:20;;;;;;;0.13;0.13;;;-1.80;99.90;;;;;;5049893;28;20041;-64
2022/02/12 03:36:46;;;;;;;0.30;0.30;;;-1.90;99.90;;;;;;5050127;28;20096;-64
2022/02/12 03:39:11;;;;;;;3.92;3.30;;;-1.90;99.90;;;;;;5034815;28;20037;-63
2022/02/12 03:41:37;;;;;;;0.75;0.75;;;-1.90;99.90;;;;;;5034875;28;20034;-63
2022/02/12 03:44:03;;;;;;;0.10;0.10;;;-1.90;99.90;;;;;;5049967;28;20399;-63
2022/02/12 03:46:29;;;;;;;0.20;0.20;;;-1.90;99.90;;;;;;5034540;28;20052;-63
2022/02/12 03:48:54;;;;;;;2.67;2.47;;;-2.00;99.90;;;;;;5034982;28;20052;-64
2022/02/12 03:51:21;;;;;;;7.10;1.65;;;-2.00;99.90;;;;;;5034263;28;20030;-64
2022/02/12 03:53:49;;;;;;;0.10;0.10;;;-2.00;99.90;;;;;;5034748;28;20045;-64
2022/02/12 03:56:15;;;;;;;0.10;0.10;;;-1.90;99.90;;;;;;5034514;28;20037;-64
2022/02/12 03:58:41;;;;;;;0.10;0.10;;;-1.90;99.90;;;;;;5034452;28;20492;-64
2022/02/12 04:01:07;;;;;;;0.85;0.85;;;-1.90;99.90;;;;;;5034307;28;20113;-64
2022/02/12 04:03:33;;;;;;;0.10;0.10;;;-1.90;99.90;;;;;;5034575;28;20034;-64
2022/02/12 04:05:59;;;;;;;0.10;0.10;;;-1.80;99.90;;;;;;5034264;28;20120;-64
2022/02/12 04:08:27;;;;;;;0.90;0.90;;;-1.60;99.90;;;;;;5034307;28;20021;-64
2022/02/12 04:10:53;;;;;;;0.10;0.10;;;-1.50;99.90;;;;;;5034440;28;20029;-64
2022/02/12 04:13:20;;;;;;;0.20;0.20;;;-1.50;99.90;;;;;;5034230;28;20034;-62
2022/02/12 04:15:46;;;;;;;1.85;1.65;;;-1.50;99.90;;;;;;5034362;28;20104;-63
2022/02/12 04:18:13;;;;;;;0.40;0.40;;;-1.50;99.90;;;;;;5049316;28;20148;-64
2022/02/12 04:20:39;;;;;;;0.10;0.10;;;-1.60;99.90;;;;;;5049194;28;20026;-64
2022/02/12 04:23:07;;;;;;;0.10;0.10;;;-1.60;99.90;;;;;;5049193;28;20040;-64
2022/02/12 04:25:33;;;;;;;0.10;0.10;;;-1.60;99.90;;;;;;5034207;28;20022;-64
2022/02/12 04:28:04;;;;;;;21.55;5.28;;;-1.60;99.90;;;;;;5034064;28;20037;-64
2022/02/12 04:30:30;;;;;;;2.30;1.95;;;-1.70;99.90;;;;;;5032805;28;20033;-65
2022/02/12 04:32:56;;;;;;;0.10;0.10;;;-1.70;99.90;;;;;;5033691;28;20103;-64
2022/02/12 04:35:21;;;;;;;1.38;1.27;;;-1.70;99.90;;;;;;5034041;28;20041;-65
2022/02/12 04:37:47;;;;;;;0.10;0.10;;;-1.70;99.90;;;;;;5034146;28;20056;-65
2022/02/12 04:40:13;;;;;;;0.75;0.75;;;-1.80;99.90;;;;;;5033914;28;20055;-65
2022/02/12 04:42:40;;;;;;;0.20;0.20;;;-1.90;99.90;;;;;;5033458;28;20033;-64
2022/02/12 04:45:07;;;;;;;10.07;0.88;;;-2.00;99.90;;;;;;5033725;28;20034;-64
2022/02/12 04:47:33;;;;;;;0.22;0.22;;;-2.00;99.90;;;;;;5048799;28;20395;-64
2022/02/12 04:49:59;;;;;;;0.40;0.40;;;-2.00;99.90;;;;;;5033698;28;20025;-64
2022/02/12 04:52:25;;;;;;;0.20;0.20;;;-1.90;99.90;;;;;;5033490;28;20368;-64
2022/02/12 04:54:50;;;;;;;0.30;0.30;;;-1.90;99.90;;;;;;5033151;28;20491;-64
2022/02/12 04:57:17;;;;;;;0.13;0.13;;;-1.90;99.90;;;;;;5033112;28;20030;-64
2022/02/12 04:59:43;;;;;;;5.25;1.95;;;-1.90;99.90;;;;;;5033489;28;20073;-64
2022/02/12 05:02:09;;;;;;;0.35;0.35;;;-1.90;99.90;;;;;;5048509;28;20037;-64
2022/02/12 05:04:35;;;;;;;0.30;0.30;;;-1.90;99.90;;;;;;5033176;28;20048;-64
2022/02/12 05:07:01;;;;;;;0.50;0.50;;;-1.90;99.90;;;;;;5033358;28;20030;-64
2022/02/12 05:09:27;;;;;;;2.75;2.50;;;-2.00;99.90;;;;;;5033209;28;20044;-64
2022/02/12 05:11:54;;;;;;;0.73;0.73;;;-2.00;99.90;;;;;;5048248;28;20056;-64
2022/02/12 05:14:20;;;;;;;1.15;1.05;;;-2.00;99.90;;;;;;5032745;28;20029;-64
2022/02/12 05:16:46;;;;;;;0.10;0.10;;;-2.10;99.90;;;;;;5032957;28;20080;-64
2022/02/12 05:19:12;;;;;;;0.20;0.20;;;-2.10;99.90;;;;;;5032941;28;20048;-65
2022/02/12 05:21:40;;;;;;;0.20;0.20;;;-2.10;99.90;;;;;;5048041;28;20025;-63
2022/02/12 05:24:06;;;;;;;0.10;0.10;;;-2.10;99.90;;;;;;5033078;28;20029;-63
2022/02/12 05:26:32;;;;;;;0.20;0.20;;;-2.10;99.90;;;;;;5048087;28;20037;-64
2022/02/12 05:28:58;;;;;;;1.25;1.17;;;-2.10;99.90;;;;;;5047941;28;20026;-64
2022/02/12 05:31:24;;;;;;;0.10;0.10;;;-2.10;99.90;;;;;;5032546;28;20371;-63
2022/02/12 05:33:50;;;;;;;0.30;0.30;;;-2.10;99.90;;;;;;5032335;28;20111;-64
2022/02/12 05:36:16;;;;;;;0.10;0.10;;;-2.10;99.90;;;;;;5032676;28;20029;-64
2022/02/12 05:38:42;;;;;;;0.20;0.20;;;-2.10;99.90;;;;;;5047962;28;20071;-64
2022/02/12 05:41:09;;;;;;;0.55;0.40;;;-2.10;99.90;;;;;;5032555;28;20385;-64
2022/02/12 05:43:36;;;;;;;0.40;0.40;;;-2.10;99.90;;;;;;5047567;28;20405;-64
2022/02/12 05:46:03;;;;;;;1.38;1.05;;;-2.10;99.90;;;;;;5048003;28;20037;-64
2022/02/12 05:48:30;;;;;;;0.10;0.10;;;-2.00;99.90;;;;;;5032132;28;20398;-64
2022/02/12 05:50:56;;;;;;;0.10;0.10;;;-2.10;99.90;;;;;;5032782;28;20056;-64
2022/02/12 05:53:23;;;;;;;0.20;0.20;;;-2.10;99.90;;;;;;5031761;28;20037;-64
2022/02/12 05:55:49;;;;;;;0.63;0.63;;;-2.10;99.90;;;;;;5047322;28;20053;-62
2022/02/12 05:58:15;;;;;;;0.57;0.57;;;-2.10;99.90;;;;;;5031831;28;20060;-63
2022/02/12 06:00:40;;;;;;;0.47;0.47;;;-2.10;99.90;;;;;;5047653;28;20469;-63
2022/02/12 06:03:06;;;;;;;0.57;0.57;;;-1.80;99.90;;;;;;5047663;28;20052;-63
2022/02/12 06:05:32;;;;;;;2.60;2.40;;;-1.80;99.90;;;;;;5031840;28;20071;-65
2022/02/12 06:08:04;;;;;;;0.10;0.10;;;-1.70;99.90;;;;;;5030479;28;20072;-63
2022/02/12 06:10:34;;;;;;;0.57;0.57;;;-1.60;99.90;;;;;;5033826;28;20034;-65
2022/02/12 06:13:00;;;;;;;1.55;1.27;;;-1.70;99.90;;;;;;5047310;28;20120;-67
2022/02/12 06:15:26;;;;;;;0.52;0.52;;;-1.80;99.90;;;;;;5046873;28;20083;-65
2022/02/12 06:17:52;;;;;;;0.10;0.10;;;-1.80;99.90;;;;;;5031710;28;20071;-64
2022/02/12 06:20:18;;;;;;;0.30;0.30;;;-1.90;99.90;;;;;;5047027;28;20029;-65
2022/02/12 06:22:44;;;;;;;0.10;0.10;;;-1.90;99.90;;;;;;5031736;28;20033;-65
2022/02/12 06:25:11;;;;;;;0.77;0.77;;;-1.90;99.90;;;;;;5046911;28;20037;-65
2022/02/12 06:27:36;;;;;;;0.10;0.10;;;-1.90;99.90;;;;;;5030788;28;20136;-65
2022/02/12 06:30:04;;;;;;;0.10;0.10;;;-1.90;99.90;;;;;;5030189;28;20649;-65
2022/02/12 06:32:30;;;;;;;0.38;0.38;;;-1.90;99.90;;;;;;5031282;28;20501;-66
2022/02/12 06:35:00;;;;;;;2.60;1.65;;;-2.00;99.90;;;;;;5031658;28;20033;-65
2022/02/12 06:37:27;;;;;;;0.10;0.10;;;-2.00;99.90;;;;;;5030556;28;20034;-65
2022/02/12 06:39:54;;;;;;;0.38;0.38;;;-2.10;99.90;;;;;;5031816;28;20386;-65
2022/02/12 06:42:20;;;;;;;0.30;0.30;;;-2.10;99.90;;;;;;5031418;28;20052;-66
2022/02/12 06:44:46;;;;;;;0.10;0.10;;;-2.10;99.90;;;;;;5047019;28;20466;-65
2022/02/12 06:47:12;;;;;;;0.30;0.30;;;-2.20;99.90;;;;;;5046903;28;20336;-65
2022/02/12 06:49:38;;;;;;;0.73;0.73;;;-2.20;99.90;;;;;;5031441;28;20095;-66
2022/02/12 06:52:05;;;;;;;1.40;1.33;;;-2.20;99.90;;;;;;5031668;28;20068;-65
2022/02/12 06:54:31;;;;;;;3.33;3.03;;;-2.30;99.90;;;;;;5031301;28;20115;-66
2022/02/12 06:56:58;;;;;;;0.20;0.20;;;-2.30;99.90;;;;;;5046496;28;20490;-66
2022/02/12 06:59:24;;;;;;;5.20;3.53;;;-2.30;99.90;;;;;;5046475;28;20041;-65
2022/02/12 07:01:50;;;;;;;0.30;0.30;;;-2.40;99.90;;;;;;5046364;28;20057;-66
2022/02/12 07:04:16;;;;;;;0.55;0.55;;;-2.40;99.90;;;;;;5032324;28;20057;-66
2022/02/12 07:06:42;;;;;;;0.20;0.20;;;-2.40;99.90;;;;;;5035324;28;20033;-66
2022/02/12 07:09:11;;;;;;;1.75;1.65;;;-2.40;99.90;;;;;;5050580;28;20037;-65
2022/02/12 07:11:37;;;;;;;0.60;0.60;;;-2.40;99.90;;;;;;5035229;28;20036;-65
2022/02/12 07:14:03;;;;;;;1.17;1.17;;;-2.40;99.90;;;;;;5035425;28;20036;-65
2022/02/12 07:16:29;;;;;;;0.95;0.90;;;-2.40;99.90;;;;;;5035040;28;20034;-65
2022/02/12 07:18:55;;;;;;;0.40;0.40;;;-2.40;99.90;;;;;;5035289;28;20036;-64
2022/02/12 07:21:20;;;;;;;0.30;0.30;;;-2.40;99.90;;;;;;5035095;28;20035;-65
2022/02/12 07:23:46;;;;;;;0.20;0.20;;;-2.30;99.90;;;;;;5035421;28;20075;-64
2022/02/12 07:26:12;;;;;;;0.20;0.20;;;-2.30;99.90;;;;;;5035510;28;20022;-64
2022/02/12 07:28:42;;;;;;;0.73;0.73;;;-2.30;99.90;;;;;;5050665;28;20048;-64
2022/02/12 07:31:09;;;;;;;0.38;0.38;;;-2.30;99.90;;;;;;5050215;28;20045;-64
2022/02/12 07:33:35;;;;;;;0.30;0.30;;;-2.30;99.90;;;;;;5050164;28;20080;-64
2022/02/12 07:36:01;;;;;;;0.17;0.17;;;-2.20;99.90;;;;;;5035409;28;20026;-64
2022/02/12 07:38:27;;;;;;;0.63;0.63;;;-2.20;99.90;;;;;;5033585;28;20030;-64
2022/02/12 07:40:52;;;;;;;0.65;0.65;;;-2.10;99.90;;;;;;5034904;28;20086;-65
2022/02/12 07:43:21;;;;;;;0.10;0.10;;;-1.90;99.90;;;;;;5049901;28;20108;-64
2022/02/12 07:45:47;;;;;;;0.20;0.20;;;-1.90;99.90;;;;;;5034659;28;20037;-64
2022/02/12 07:48:12;;;;;;;0.20;0.20;;;-1.90;99.90;;;;;;5034876;28;20044;-64
2022/02/12 07:50:38;;;;;;;0.10;0.10;;;-1.90;99.90;;;;;;5034259;28;20045;-66
2022/02/12 07:53:04;;;;;;;0.65;0.65;;;-1.80;99.90;;;;;;5034213;28;20121;-65
2022/02/12 07:55:31;;;;;;;0.30;0.30;;;-1.70;99.90;;;;;;5057129;28;20032;-68
2022/02/12 07:57:58;;;;;;;0.10;0.10;;;-1.70;99.90;;;;;;5051418;28;20040;-67
2022/02/12 08:00:24;;;;;;;0.20;0.20;;;-1.70;99.90;;;;;;5069776;28;20112;-66
2022/02/12 08:02:50;;;;;;;0.13;0.13;;;-1.60;99.90;;;;;;5051439;28;20167;-67
2022/02/12 08:05:16;;;;;;;0.10;0.10;;;-1.50;99.90;;;;;;5053540;28;20044;-67
2022/02/12 08:07:42;;;;;;;0.17;0.17;;;-1.40;99.90;;;;;;5052638;28;20033;-66
2022/02/12 08:12:56;;;;;;;0.10;0.10;;;-1.30;99.90;;;;;;5053604;28;20036;-67
2022/02/12 08:15:22;;;;;;;1.48;1.40;;;-1.20;99.90;;;;;;5052543;28;20121;-66
2022/02/12 08:17:48;;;;;;;0.10;0.10;;;-1.20;99.90;;;;;;5053662;28;20033;-65
2022/02/12 08:20:14;;;;;;;0.95;0.95;;;-1.10;99.90;;;;;;5053760;28;20029;-65
2022/02/12 08:22:40;;;;;;;0.10;0.10;;;-1.00;99.90;;;;;;5054084;28;20025;-65
2022/02/12 08:25:09;;;;;;;0.20;0.20;;;-0.90;99.90;;;;;;5035694;28;20059;-65
2022/02/12 08:27:36;;;;;;;0.63;0.63;;;-0.80;99.90;;;;;;5068667;28;20040;-66
2022/02/12 08:30:04;;;;;;;3.20;1.85;;;-0.70;99.90;;;;;;5053610;28;20045;-65
2022/02/12 08:32:30;;;;;;;1.55;1.45;;;-0.50;99.90;;;;;;5053424;28;20087;-67
2022/02/12 08:34:55;;;;;;;0.10;0.10;;;-0.40;99.90;;;;;;5046065;28;20492;-66
2022/02/12 08:37:22;;;;;;;0.20;0.20;;;-0.30;99.90;;;;;;5033543;28;20498;-67
2022/02/12 08:39:49;;;;;;;0.10;0.10;;;-0.20;99.90;;;;;;5048910;28;20068;-67
2022/02/12 08:42:18;;;;;;;0.10;0.10;;;-0.20;99.90;;;;;;5048844;28;20025;-66
2022/02/12 08:44:44;;;;;;;1.30;1.25;;;-0.10;99.90;;;;;;5033111;28;20743;-66
2022/02/12 08:47:11;;;;;;;0.50;0.50;;;0.00;99.90;;;;;;5048751;28;20109;-66
2022/02/12 08:49:38;;;;;;;0.30;0.30;;;0.20;99.90;;;;;;5048915;28;20501;-65
2022/02/12 08:52:04;;;;;;;2.85;2.05;;;0.40;99.90;;;;;;5052782;28;20094;-65
2022/02/12 08:54:30;;;;;;;0.10;0.10;;;0.50;99.90;;;;;;5052174;28;20047;-66
2022/02/12 08:56:56;;;;;;;0.25;0.25;;;0.60;99.90;;;;;;5068970;28;20385;-65
2022/02/12 08:59:26;;;;;;;1.48;1.38;;;0.80;99.90;;;;;;5052876;28;20094;-66
2022/02/12 09:01:52;;;;;;;2.72;2.22;;;1.00;99.90;;;;;;5068308;28;20029;-66
2022/02/12 09:04:17;;;;;;;0.45;0.45;;;1.20;99.90;;;;;;5065426;28;20075;-65
2022/02/12 09:06:43;;;;;;;0.32;0.32;;;1.40;99.90;;;;;;5044568;28;20060;-65
2022/02/12 09:09:09;;;;;;;2.33;1.77;;;1.40;99.90;;;;;;5043372;28;20040;-66
2022/02/12 09:11:41;;;;;;;0.70;0.70;;;1.50;99.90;;;;;;5041288;28;20100;-66
2022/02/12 09:14:09;;;;;;;1.15;1.05;;;1.60;99.90;;;;;;5059955;28;20033;-65
2022/02/12 09:16:37;;;;;;;0.30;0.30;;;1.70;99.90;;;;;;5043339;28;20029;-66
2022/02/12 09:19:04;;;;;;;0.30;0.30;;;1.80;99.90;;;;;;5044971;28;20021;-66
2022/02/12 09:21:30;;;;;;;3.75;3.45;;;1.90;99.90;;;;;;5067832;28;20033;-67
2022/02/12 09:23:56;;;;;;;1.00;0.82;;;2.00;99.90;;;;;;5052744;28;20037;-66
2022/02/12 09:26:29;;;;;;;0.35;0.35;;;2.10;99.90;;;;;;5052724;28;20474;-65
2022/02/12 09:29:03;;;;;;;0.85;0.50;;;2.20;99.90;;;;;;5067012;28;20124;-65
2022/02/12 09:31:29;;;;;;;0.10;0.10;;;2.40;99.90;;;;;;5052295;28;20112;-65
2022/02/12 09:33:55;;;;;;;0.30;0.30;;;2.50;99.90;;;;;;5052257;28;20136;-66
2022/02/12 09:36:21;;;;;;;0.52;0.52;;;2.60;99.90;;;;;;5067883;28;20382;-66
2022/02/12 09:38:47;;;;;;;0.60;0.60;;;2.60;99.90;;;;;;5067968;28;20112;-66
2022/02/12 09:41:14;;;;;;;5.25;3.70;;;2.80;99.90;;;;;;5052437;28;20044;-66
2022/02/12 09:43:41;;;;;;;10.75;2.13;;;3.00;99.90;;;;;;5067410;28;20029;-66
2022/02/12 09:46:30;;;;;;;0.22;0.22;;;3.20;99.90;;;;;;5049139;28;20037;-67
2022/02/12 09:49:06;;;;;;;0.88;0.65;;;3.20;99.90;;;;;;5150692;27;20409;-65
2022/02/12 09:51:32;;;;;;;0.10;0.10;;;3.50;99.90;;;;;;5127888;28;20121;-66
2022/02/12 09:53:59;;;;;;;4.00;2.47;;;4.00;99.90;;;;;;5129539;27;20016;-66
2022/02/12 09:56:25;;;;;;;0.68;0.68;;;4.30;99.90;;;;;;5127815;28;20053;-66
2022/02/12 09:58:54;;;;;;;2.17;2.08;;;4.10;99.90;;;;;;5129323;27;20035;-67
2022/02/12 10:01:20;;;;;;;27.95;2.33;;;4.00;99.90;;;;;;5125445;28;20023;-65
2022/02/12 10:03:49;;;;;;;1.23;1.13;;;4.30;99.90;;;;;;5129108;28;20027;-67
2022/02/12 10:06:15;;;;;;;0.17;0.17;;;4.50;99.90;;;;;;5111931;28;20244;-70
2022/02/12 10:09:01;;;;;;;0.45;0.45;;;4.60;99.90;;;;;;5129417;28;20720;-69
2022/02/12 10:11:47;;;;;;;0.00;0.00;;;4.80;99.90;;;;;;5128995;27;20118;-66
2022/02/12 10:14:23;;;;;;;0.25;0.25;;;4.90;99.90;;;;;;5129821;27;20028;-67
2022/02/12 10:17:02;;;;;;;0.03;0.03;;;5.10;99.90;;;;;;5129882;27;20019;-66
2022/02/12 10:19:38;;;;;;;0.75;0.75;;;5.10;99.90;;;;;;5127813;27;20031;-66
2022/02/12 10:22:16;;;;;;;0.05;0.05;;;5.80;99.90;;;;;;5129706;27;20035;-67
2022/02/12 10:24:51;;;;;;;0.28;0.28;;;6.50;99.90;;;;;;5128269;28;20060;-65
2022/02/12 10:27:26;;;;;;;0.00;0.00;;;7.00;99.90;;;;;;5129733;27;20119;-67
2022/02/12 10:29:54;;;;;;;9.38;2.58;;;7.40;99.90;;;;;;5128148;28;20035;-66
2022/02/12 10:32:23;;;;;;;2.25;1.15;;;7.30;99.90;;;;;;5127949;28;20019;-66
2022/02/12 10:34:50;;;;;;;0.30;0.30;;;6.60;99.90;;;;;;5129186;27;20030;-66
2022/02/12 10:37:20;;;;;;;0.28;0.28;;;7.10;99.90;;;;;;5127777;28;20035;-70
2022/02/12 10:40:01;;;;;;;0.15;0.15;;;6.60;99.90;;;;;;5144927;27;20075;-64
2022/02/12 10:42:31;;;;;;;0.98;0.68;;;7.50;99.90;;;;;;5110326;28;20055;-65
2022/02/12 10:44:57;;;;;;;0.47;0.47;;;6.80;99.90;;;;;;5128459;27;20398;-65
2022/02/12 10:47:24;;;;;;;0.82;0.55;;;6.40;99.90;;;;;;5127030;28;20108;-65
2022/02/12 10:49:51;;;;;;;0.30;0.30;;;6.30;99.90;;;;;;5128701;28;20028;-65
2022/02/12 10:52:19;;;;;;;0.00;0.00;;;6.40;99.90;;;;;;5127630;28;20063;-64
2022/02/12 10:54:50;;;;;;;0.85;0.85;;;6.50;99.90;;;;;;5128948;27;20043;-64
2022/02/12 10:57:22;;;;;;;5.82;0.75;;;6.80;99.90;;;;;;5128693;28;20027;-65
2022/02/12 10:59:49;;;;;;;0.73;0.55;;;6.60;99.90;;;;;;5116642;28;20480;-65
2022/02/12 11:02:18;;;;;;;0.00;0.00;;;6.60;99.90;;;;;;5114906;28;20043;-67
2022/02/12 11:04:48;;;;;;;0.20;0.20;;;7.10;99.90;;;;;;5113478;28;20035;-71
2022/02/12 11:07:17;;;;;;;0.05;0.05;;;7.00;99.90;;;;;;5113633;28;20074;-62
2022/02/12 11:09:44;;;;;;;0.65;0.40;;;6.80;99.90;;;;;;5114737;28;20024;-64
2022/02/12 11:12:12;;;;;;;2.67;1.40;;;6.90;99.90;;;;;;5112254;28;20085;-63
2022/02/12 11:14:39;;;;;;;0.10;0.10;;;6.90;99.90;;;;;;5114303;28;20032;-63
2022/02/12 11:17:15;;;;;;;0.10;0.10;;;6.90;99.90;;;;;;5114158;28;20032;-63
2022/02/12 11:19:43;;;;;;;0.77;0.77;;;7.60;99.90;;;;;;5111985;28;20494;-63
2022/02/12 11:22:11;;;;;;;0.20;0.20;;;7.40;99.90;;;;;;5113173;28;20032;-63
2022/02/12 11:24:44;;;;;;;0.10;0.10;;;8.50;99.90;;;;;;5096557;28;20053;-63
2022/02/12 11:27:31;;;;;;;0.03;0.03;;;8.30;99.90;;;;;;5114755;28;20476;-64
2022/02/12 11:30:17;;;;;;;0.50;0.50;;;7.50;99.90;;;;;;5114483;28;20035;-63
2022/02/12 11:32:46;;;;;;;0.00;0.00;;;8.10;99.90;;;;;;5114524;28;20028;-69
2022/02/12 11:35:12;;;;;;;0.00;0.00;;;8.10;99.90;;;;;;5114414;28;20047;-69
2022/02/12 11:37:49;;;;;;;0.85;0.73;;;7.60;99.90;;;;;;5113788;28;20488;-70
2022/02/12 11:40:22;;;;;;;0.30;0.30;;;8.40;99.90;;;;;;5114386;28;20389;-70
2022/02/12 11:43:06;;;;;;;0.25;0.25;;;10.50;99.90;;;;;;5113917;28;20042;-70
2022/02/12 11:45:46;;;;;;;0.20;0.20;;;10.90;99.90;;;;;;5114180;28;20032;-70
2022/02/12 11:48:25;;;;;;;0.00;0.00;;;11.30;96.60;;;;;;5114289;27;20043;-69
2022/02/12 11:51:12;;;;;;;2.80;1.73;;;9.50;97.70;;;;;;5113913;28;20314;-70
2022/02/12 11:53:50;;;;;;;0.20;0.20;;;10.60;99.00;;;;;;5113210;28;20043;-70
2022/02/12 11:56:19;;;;;;;0.55;0.40;;;9.90;97.40;;;;;;5112792;28;20045;-69
2022/02/12 11:58:47;;;;;;;0.00;0.00;;;9.40;98.60;;;;;;5114079;28;20048;-68
2022/02/12 12:01:22;;;;;;;0.10;0.10;;;8.90;98.10;;;;;;5112544;28;20039;-69
2022/02/12 12:04:11;;;;;;;0.10;0.10;;;9.20;98.60;;;;;;5113658;28;20122;-69
2022/02/12 12:07:05;;;;;;;0.40;0.40;;;9.30;97.90;;;;;;5113660;28;20042;-69
2022/02/12 12:09:58;;;;;;;0.00;0.00;;;8.80;99.40;;;;;;5112567;28;20130;-69
2022/02/12 12:12:24;;;;;;;0.32;0.32;;;9.60;99.90;;;;;;5111090;28;20541;-69
2022/02/12 12:15:21;;;;;;;4.97;0.52;;;9.80;95.70;;;;;;5111443;28;20067;-64
2022/02/12 12:18:13;;;;;;;0.45;0.38;;;10.40;97.20;;;;;;5126057;27;20032;-68
2022/02/12 12:20:42;;;;;;;0.73;0.22;;;11.10;94.90;;;;;;5108214;28;20411;-68
2022/02/12 12:23:17;;;;;;;0.10;0.10;;;11.90;93.10;;;;;;5111423;28;20019;-68
2022/02/12 12:25:59;;;;;;;0.00;0.00;;;12.40;92.20;;;;;;5075024;28;20119;-84
2022/02/12 12:28:42;;;;;;;0.25;0.25;;;12.10;91.50;;;;;;5095583;28;20032;-80
2022/02/12 12:31:16;;;;;;;0.20;0.20;;;10.70;93.60;;;;;;5094343;28;20037;-67
2022/02/12 12:33:45;;;;;;;0.00;0.00;;;11.60;92.90;;;;;;5091292;28;20483;-71
2022/02/12 12:36:17;;;;;;;0.47;0.43;;;11.60;91.70;;;;;;5091267;28;20028;-68
2022/02/12 12:38:48;;;;;;;0.00;0.00;;;11.80;92.80;;;;;;5091553;28;20115;-74
2022/02/12 12:41:31;;;;;;;2.33;1.27;;;10.50;93.80;;;;;;5092827;28;20028;-72
2022/02/12 12:44:16;;;;;;;0.00;0.00;;;9.90;94.10;;;;;;5092244;28;20038;-71
2022/02/12 12:46:49;;;;;;;0.00;0.00;;;11.10;93.00;;;;;;5091960;28;20051;-73
2022/02/12 12:49:41;;;;;;;0.00;0.00;;;11.20;92.20;;;;;;5108189;28;20043;-65
2022/02/12 12:52:13;;;;;;;0.17;0.17;;;10.90;91.70;;;;;;5092429;28;20467;-80
2022/02/12 12:54:44;;;;;;;0.00;0.00;;;10.00;93.60;;;;;;5091265;28;20468;-67
2022/02/12 12:57:11;;;;;;;;;;;9.60;95.40;;;;;;5075350;28;20032;-69
2022/02/12 12:59:56;;;;;;;0.15;0.15;;;9.50;94.40;;;;;;5092356;28;19942;-73
2022/02/12 13:02:22;;;;;;;22.48;1.10;;;10.50;94.80;;;;;;5092040;28;20534;-62
2022/02/12 13:04:54;;;;;;;0.65;0.47;;;11.10;91.20;;;;;;5090887;28;20020;-65
2022/02/12 13:07:24;;;;;;;0.00;0.00;;;11.20;92.60;;;;;;5091353;28;20040;-59
2022/02/12 13:09:54;;;;;;;2.20;0.63;;;11.90;91.70;;;;;;5091161;28;20111;-57
2022/02/12 13:12:40;;;;;;;0.00;0.00;;;11.30;90.90;;;;;;5090753;28;20028;-58
2022/02/12 13:15:16;;;;;;;0.57;0.57;;;10.00;94.20;;;;;;5092427;28;20042;-59
2022/02/12 13:17:44;;;;;;;0.00;0.00;;;10.70;92.60;;;;;;5090688;28;20028;-60
2022/02/12 13:20:22;;;;;;;0.00;0.00;;;9.90;91.30;;;;;;5091210;28;20028;-63
2022/02/12 13:23:00;;;;;;;0.00;0.00;;;9.80;92.10;;;;;;5092067;28;20485;-58